AirNav   Air Wisconsin pilot careers
 
 866 users online  

9M4 Ackerman Choctaw County Airport
Ackerman, Mississippi, USA

GOING TO ACKERMAN?


FAA INFORMATION EFFECTIVE 07 DECEMBER 2017

Location

FAA Identifier: 9M4
Lat/Long: 33-18-12.4470N / 089-13-42.2410W
33-18.207450N / 089-13.704017W
33.3034575 / -89.2284003
(estimated)
Elevation: 552 ft. / 168.2 m (surveyed)
Variation: 02E (1985)
From city: 3 miles W of ACKERMAN, MS
Time zone: UTC -6 (UTC -5 during Daylight Saving Time)
Zip code: 39735

Airport Operations

Airport use: Open to the public
Activation date: 01/1963
Control tower: no
ARTCC: MEMPHIS CENTER
FSS: GREENWOOD FLIGHT SERVICE STATION
NOTAMs facility: GWO (NOTAM-D service available)
Attendance: UNATNDD
Wind indicator: lighted
Segmented circle: yes
Lights: SS-SR
Beacon: white-green (lighted land airport)
Operates sunset to sunrise.

Airport Communications

CTAF: 122.9

Nearby radio navigation aids

VOR radial/distance  VOR name  Freq  Var
IGBr249/37.4BIGBEE VORTAC116.2004E

Airport Services

Parking: tiedowns
Airframe service: NONE
Powerplant service: NONE
Bottled oxygen: NONE
Bulk oxygen: NONE

Runway Information

Runway 1/19

Dimensions: 3000 x 75 ft. / 914 x 23 m
Surface: asphalt, in good condition
Weight bearing capacity: 
Single wheel: 19.5
Runway edge lights: medium intensity
RUNWAY 1  RUNWAY 19
Gradient: 1.1%1.1%
Traffic pattern: leftleft
Markings: basic, in good conditionbasic, in good condition
Visual slope indicator: 2-light PAPI on left (3.00 degrees glide path)2-light PAPI on left (3.00 degrees glide path)
Obstructions: none41 ft. trees, 1209 ft. from runway, 100 ft. right of centerline, 24:1 slope to clear

Airport Ownership and Management from official FAA records

Ownership: Publicly-owned
Owner: ACKERMAN CITY & CHOCTAW CO
119 E MAIN ST/BOX 394
ACKERMAN, MS 39735
Phone 662-285-6251
Manager: STEVE MONTGOMERY
P O BOX 394, 22 E. QUINN ST., 214 E. QUINN ST.
ACKERMAN, MS 39735
Phone 662-285-7633
CHANCERY CLERK; DICK CAIN, MAYOR, CITY OF ACKERMAN 662-285-6251. JOEY STEPHENSON PRES. CHOCTAW COUNTY BOARD OF SUPERVISORS 662-285-7372.

Airport Operational Statistics

Aircraft based on the field: 3
Single engine airplanes: 3
    
Aircraft operations: avg 75/month *
67% transient general aviation
33% local general aviation
* for 12-month period ending 08 February 2017

Additional Remarks

WILDLIFE ON AND INVOF RY.

Instrument Procedures

There are no published instrument procedures at 9M4.

Some nearby airports with instrument procedures:

KLMS - Louisville Winston County Airport (13 nm SE)
KOSX - Kosciusko-Attala County Airport (20 nm SW)
KSTF - George M Bryan Airport (21 nm E)
5A6 - Winona-Montgomery County Airport (27 nm W)
M51 - Oktibbeha Airport (30 nm NE)
 
Loc | Ops | Rwys | IFR | FBO | Links
Com | Nav | Svcs | Stats | Notes


 
Area around 9M4 (Ackerman Choctaw County Airport)
 
Road maps at: MapQuest Bing Google
 
Aerial photo
WARNING: Photo may not be current or correct
Aerial photo of 9M4 (Ackerman Choctaw County Airport)
Do you have a better or more recent aerial photo of Ackerman Choctaw County Airport that you would like to share? If so, please send us your photo.

 
Sectional chart

 
Airport distance calculator
Flying to Ackerman Choctaw County Airport? Find the distance to fly.

From to 9M4

Sunrise and sunset
Times for 16-Dec-2017
 Local
(UTC-6)
 Zulu
(UTC)
Morning civil twilight06:2712:27
Sunrise06:5512:55
Sunset16:5022:50
Evening civil twilight17:1823:18

Current date and time
Zulu (UTC)  16-Dec-2017 15:18:06
Local (UTC-6)  16-Dec-2017 09:18:06
 
METAR
KSTF 
21nm E 
161435Z AUTO 00000KT 10SM CLR M02/M02 A3033 RMK AO2
K5A6 
27nm W 
161455Z AUTO 00000KT 10SM CLR 01/M01 A3030 RMK AO2 T00091009
KGTR 
34nm E 
161456Z 16005KT 10SM CLR 03/01 A3033 RMK AO2 SLP274 T00280006 51013
TAF
KGTR 
34nm E 
161139Z 1612/1712 17006KT P6SM SKC
NOTAMs
Click for the latest NOTAMs
NOTAMs are issued by the DoD/FAA and will open in a separate window not controlled by AirNav.

 

 
 

Would you like to see your business listed on this page?

 If your business provides an interesting product or service to pilots, flight crews, aircraft, or users of the Ackerman Choctaw County Airport, you should consider listing it here.  To start the listing process, click on the button below
 
Add a business
 

Other Pages about Ackerman Choctaw County Airport

Update a link
 
Copyright © AirNav, LLC. All rights reserved. Privacy Policy  Contact